sensor_id;sensor_type;location;lat;lon;timestamp;temperature;humidity
55634;DHT22;41504;53.162;6.788;2023-11-18T00:00:58;3.40;99.90
55634;DHT22;41504;53.162;6.788;2023-11-18T00:03:24;3.40;99.90
55634;DHT22;41504;53.162;6.788;2023-11-18T00:05:50;3.30;99.90
55634;DHT22;41504;53.162;6.788;2023-11-18T00:08:18;3.30;99.90
55634;DHT22;41504;53.162;6.788;2023-11-18T00:10:44;3.40;99.90
55634;DHT22;41504;53.162;6.788;2023-11-18T00:13:09;3.30;99.90
55634;DHT22;41504;53.162;6.788;2023-11-18T00:15:35;3.30;99.90
55634;DHT22;41504;53.162;6.788;2023-11-18T00:18:01;3.30;99.90
55634;DHT22;41504;53.162;6.788;2023-11-18T00:20:27;3.40;99.90
55634;DHT22;41504;53.162;6.788;2023-11-18T00:22:53;3.30;99.90
55634;DHT22;41504;53.162;6.788;2023-11-18T00:25:18;3.60;99.90
55634;DHT22;41504;53.162;6.788;2023-11-18T00:27:44;3.30;99.90
55634;DHT22;41504;53.162;6.788;2023-11-18T00:30:10;3.50;99.90
55634;DHT22;41504;53.162;6.788;2023-11-18T00:32:39;3.40;99.90
55634;DHT22;41504;53.162;6.788;2023-11-18T00:35:05;3.40;99.90
55634;DHT22;41504;53.162;6.788;2023-11-18T00:37:32;3.40;99.90
55634;DHT22;41504;53.162;6.788;2023-11-18T00:39:58;3.70;99.90
55634;DHT22;41504;53.162;6.788;2023-11-18T00:42:24;3.40;99.90
55634;DHT22;41504;53.162;6.788;2023-11-18T00:44:50;3.50;99.90
55634;DHT22;41504;53.162;6.788;2023-11-18T00:47:16;3.40;99.90
55634;DHT22;41504;53.162;6.788;2023-11-18T00:49:42;3.40;99.90
55634;DHT22;41504;53.162;6.788;2023-11-18T00:52:08;3.40;99.90
55634;DHT22;41504;53.162;6.788;2023-11-18T00:54:35;3.50;99.90
55634;DHT22;41504;53.162;6.788;2023-11-18T00:57:02;3.50;99.90
55634;DHT22;41504;53.162;6.788;2023-11-18T00:59:27;3.40;99.90
55634;DHT22;41504;53.162;6.788;2023-11-18T01:01:53;3.80;99.90
55634;DHT22;41504;53.162;6.788;2023-11-18T01:04:19;3.40;99.90
55634;DHT22;41504;53.162;6.788;2023-11-18T01:06:45;3.40;99.90
55634;DHT22;41504;53.162;6.788;2023-11-18T01:09:11;3.30;99.90
55634;DHT22;41504;53.162;6.788;2023-11-18T01:11:37;3.30;99.90
55634;DHT22;41504;53.162;6.788;2023-11-18T01:14:03;3.30;99.90
55634;DHT22;41504;53.162;6.788;2023-11-18T01:16:29;3.30;99.90
55634;DHT22;41504;53.162;6.788;2023-11-18T01:18:55;3.30;99.90
55634;DHT22;41504;53.162;6.788;2023-11-18T01:21:23;3.30;99.90
55634;DHT22;41504;53.162;6.788;2023-11-18T01:23:49;3.30;99.90
55634;DHT22;41504;53.162;6.788;2023-11-18T01:26:16;3.30;99.90
55634;DHT22;41504;53.162;6.788;2023-11-18T01:28:41;3.30;99.90
55634;DHT22;41504;53.162;6.788;2023-11-18T01:31:09;3.50;99.90
55634;DHT22;41504;53.162;6.788;2023-11-18T01:33:40;3.50;99.90
55634;DHT22;41504;53.162;6.788;2023-11-18T01:36:07;3.30;99.90
55634;DHT22;41504;53.162;6.788;2023-11-18T01:38:34;3.30;99.90
55634;DHT22;41504;53.162;6.788;2023-11-18T01:41:09;3.30;99.90
55634;DHT22;41504;53.162;6.788;2023-11-18T01:43:35;3.30;99.90
55634;DHT22;41504;53.162;6.788;2023-11-18T01:46:07;3.30;99.90
55634;DHT22;41504;53.162;6.788;2023-11-18T01:48:36;3.30;99.90
55634;DHT22;41504;53.162;6.788;2023-11-18T01:51:05;3.70;99.90
55634;DHT22;41504;53.162;6.788;2023-11-18T01:53:32;3.30;99.90
55634;DHT22;41504;53.162;6.788;2023-11-18T01:56:01;3.30;99.90
55634;DHT22;41504;53.162;6.788;2023-11-18T01:58:28;3.30;99.90
55634;DHT22;41504;53.162;6.788;2023-11-18T02:00:57;3.30;99.90
55634;DHT22;41504;53.162;6.788;2023-11-18T02:03:23;3.30;99.90
55634;DHT22;41504;53.162;6.788;2023-11-18T02:05:49;3.30;99.90
55634;DHT22;41504;53.162;6.788;2023-11-18T02:08:17;3.60;99.90
55634;DHT22;41504;53.162;6.788;2023-11-18T02:13:26;3.30;99.90
55634;DHT22;41504;53.162;6.788;2023-11-18T02:15:56;3.30;99.90
55634;DHT22;41504;53.162;6.788;2023-11-18T02:18:25;3.30;99.90
55634;DHT22;41504;53.162;6.788;2023-11-18T02:20:55;3.30;99.90
55634;DHT22;41504;53.162;6.788;2023-11-18T02:23:23;3.30;99.90
55634;DHT22;41504;53.162;6.788;2023-11-18T02:25:49;3.60;99.90
55634;DHT22;41504;53.162;6.788;2023-11-18T02:28:15;3.30;99.90
55634;DHT22;41504;53.162;6.788;2023-11-18T02:30:42;3.60;99.90
55634;DHT22;41504;53.162;6.788;2023-11-18T02:33:18;3.20;99.90
55634;DHT22;41504;53.162;6.788;2023-11-18T02:35:52;3.20;99.90
55634;DHT22;41504;53.162;6.788;2023-11-18T02:38:22;3.20;99.90
55634;DHT22;41504;53.162;6.788;2023-11-18T02:40:54;3.10;99.90
55634;DHT22;41504;53.162;6.788;2023-11-18T02:43:24;3.10;99.90
55634;DHT22;41504;53.162;6.788;2023-11-18T02:45:50;3.10;99.90
55634;DHT22;41504;53.162;6.788;2023-11-18T02:48:17;3.00;99.90
55634;DHT22;41504;53.162;6.788;2023-11-18T02:50:43;3.20;99.90
55634;DHT22;41504;53.162;6.788;2023-11-18T02:53:09;2.90;99.90
55634;DHT22;41504;53.162;6.788;2023-11-18T02:55:35;2.90;99.90
55634;DHT22;41504;53.162;6.788;2023-11-18T02:58:01;2.90;99.90
55634;DHT22;41504;53.162;6.788;2023-11-18T03:00:28;2.90;99.90
55634;DHT22;41504;53.162;6.788;2023-11-18T03:02:54;3.10;99.90
55634;DHT22;41504;53.162;6.788;2023-11-18T03:05:20;2.90;99.90
55634;DHT22;41504;53.162;6.788;2023-11-18T03:07:47;2.80;99.90
55634;DHT22;41504;53.162;6.788;2023-11-18T03:10:18;2.80;99.90
55634;DHT22;41504;53.162;6.788;2023-11-18T03:12:54;3.00;99.90
55634;DHT22;41504;53.162;6.788;2023-11-18T03:15:20;2.80;99.90
55634;DHT22;41504;53.162;6.788;2023-11-18T03:17:49;2.80;99.90
55634;DHT22;41504;53.162;6.788;2023-11-18T03:20:24;2.80;99.90
55634;DHT22;41504;53.162;6.788;2023-11-18T03:22:54;2.80;99.90
55634;DHT22;41504;53.162;6.788;2023-11-18T03:25:20;2.80;99.90
55634;DHT22;41504;53.162;6.788;2023-11-18T03:27:49;2.80;99.90
55634;DHT22;41504;53.162;6.788;2023-11-18T03:30:15;2.80;99.90
55634;DHT22;41504;53.162;6.788;2023-11-18T03:32:42;3.20;99.90
55634;DHT22;41504;53.162;6.788;2023-11-18T03:35:08;2.90;99.90
55634;DHT22;41504;53.162;6.788;2023-11-18T03:37:35;2.90;99.90
55634;DHT22;41504;53.162;6.788;2023-11-18T03:40:01;2.90;99.90
55634;DHT22;41504;53.162;6.788;2023-11-18T03:42:27;2.90;99.90
55634;DHT22;41504;53.162;6.788;2023-11-18T03:44:54;2.90;99.90
55634;DHT22;41504;53.162;6.788;2023-11-18T03:47:20;2.90;99.90
55634;DHT22;41504;53.162;6.788;2023-11-18T03:49:50;2.90;99.90
55634;DHT22;41504;53.162;6.788;2023-11-18T03:52:15;3.00;99.90
55634;DHT22;41504;53.162;6.788;2023-11-18T03:54:41;2.90;99.90
55634;DHT22;41504;53.162;6.788;2023-11-18T03:57:07;2.90;99.90
55634;DHT22;41504;53.162;6.788;2023-11-18T03:59:33;2.90;99.90
55634;DHT22;41504;53.162;6.788;2023-11-18T04:01:59;2.90;99.90
55634;DHT22;41504;53.162;6.788;2023-11-18T04:04:24;3.30;99.90
55634;DHT22;41504;53.162;6.788;2023-11-18T04:06:50;2.90;99.90
55634;DHT22;41504;53.162;6.788;2023-11-18T04:09:16;2.90;99.90
55634;DHT22;41504;53.162;6.788;2023-11-18T04:11:41;2.90;99.90
55634;DHT22;41504;53.162;6.788;2023-11-18T04:14:11;2.90;99.90
55634;DHT22;41504;53.162;6.788;2023-11-18T04:16:37;3.00;99.90
55634;DHT22;41504;53.162;6.788;2023-11-18T04:19:03;3.10;99.90
55634;DHT22;41504;53.162;6.788;2023-11-18T04:21:29;3.00;99.90
55634;DHT22;41504;53.162;6.788;2023-11-18T04:23:55;3.00;99.90
55634;DHT22;41504;53.162;6.788;2023-11-18T04:26:21;3.00;99.90
55634;DHT22;41504;53.162;6.788;2023-11-18T04:28:47;2.90;99.90
55634;DHT22;41504;53.162;6.788;2023-11-18T04:31:12;3.00;99.90
55634;DHT22;41504;53.162;6.788;2023-11-18T04:33:38;3.00;99.90
55634;DHT22;41504;53.162;6.788;2023-11-18T04:36:07;3.00;99.90
55634;DHT22;41504;53.162;6.788;2023-11-18T04:38:35;3.00;99.90
55634;DHT22;41504;53.162;6.788;2023-11-18T04:41:02;3.00;99.90
55634;DHT22;41504;53.162;6.788;2023-11-18T04:43:31;3.00;99.90
55634;DHT22;41504;53.162;6.788;2023-11-18T04:45:58;3.00;99.90
55634;DHT22;41504;53.162;6.788;2023-11-18T04:48:24;3.00;99.90
55634;DHT22;41504;53.162;6.788;2023-11-18T04:50:50;3.30;99.90
55634;DHT22;41504;53.162;6.788;2023-11-18T04:53:16;3.00;99.90
55634;DHT22;41504;53.162;6.788;2023-11-18T04:55:41;3.10;99.90
55634;DHT22;41504;53.162;6.788;2023-11-18T04:58:07;3.10;99.90
55634;DHT22;41504;53.162;6.788;2023-11-18T05:00:38;3.10;99.90
55634;DHT22;41504;53.162;6.788;2023-11-18T05:03:08;3.10;99.90
55634;DHT22;41504;53.162;6.788;2023-11-18T05:05:37;3.30;99.90
55634;DHT22;41504;53.162;6.788;2023-11-18T05:08:06;3.30;99.90
55634;DHT22;41504;53.162;6.788;2023-11-18T05:10:35;3.10;99.90
55634;DHT22;41504;53.162;6.788;2023-11-18T05:13:03;3.10;99.90
55634;DHT22;41504;53.162;6.788;2023-11-18T05:15:28;3.20;99.90
55634;DHT22;41504;53.162;6.788;2023-11-18T05:17:55;3.20;99.90
55634;DHT22;41504;53.162;6.788;2023-11-18T05:20:21;3.20;99.90
55634;DHT22;41504;53.162;6.788;2023-11-18T05:22:50;3.20;99.90
55634;DHT22;41504;53.162;6.788;2023-11-18T05:25:15;3.20;99.90
55634;DHT22;41504;53.162;6.788;2023-11-18T05:27:41;3.30;99.90
55634;DHT22;41504;53.162;6.788;2023-11-18T05:30:10;3.30;99.90
55634;DHT22;41504;53.162;6.788;2023-11-18T05:32:36;3.30;99.90
55634;DHT22;41504;53.162;6.788;2023-11-18T05:35:04;3.30;99.90
55634;DHT22;41504;53.162;6.788;2023-11-18T05:37:30;3.30;99.90
55634;DHT22;41504;53.162;6.788;2023-11-18T05:40:01;3.40;99.90
55634;DHT22;41504;53.162;6.788;2023-11-18T05:42:33;3.40;99.90
55634;DHT22;41504;53.162;6.788;2023-11-18T05:45:01;3.40;99.90
55634;DHT22;41504;53.162;6.788;2023-11-18T05:47:27;3.40;99.90
55634;DHT22;41504;53.162;6.788;2023-11-18T05:49:53;3.40;99.90
55634;DHT22;41504;53.162;6.788;2023-11-18T05:52:20;3.40;99.90
55634;DHT22;41504;53.162;6.788;2023-11-18T05:54:46;3.40;99.90
55634;DHT22;41504;53.162;6.788;2023-11-18T05:57:14;3.50;99.90
55634;DHT22;41504;53.162;6.788;2023-11-18T05:59:40;3.50;99.90
55634;DHT22;41504;53.162;6.788;2023-11-18T06:02:06;4.20;99.90
55634;DHT22;41504;53.162;6.788;2023-11-18T06:04:33;3.50;99.90
55634;DHT22;41504;53.162;6.788;2023-11-18T06:06:59;3.50;99.90
55634;DHT22;41504;53.162;6.788;2023-11-18T06:09:25;3.50;99.90
55634;DHT22;41504;53.162;6.788;2023-11-18T06:11:51;3.60;99.90
55634;DHT22;41504;53.162;6.788;2023-11-18T06:14:19;3.50;99.90
55634;DHT22;41504;53.162;6.788;2023-11-18T06:16:45;3.60;99.90
55634;DHT22;41504;53.162;6.788;2023-11-18T06:19:13;3.90;99.90
55634;DHT22;41504;53.162;6.788;2023-11-18T06:21:40;3.60;99.90
55634;DHT22;41504;53.162;6.788;2023-11-18T06:24:06;3.60;99.90
55634;DHT22;41504;53.162;6.788;2023-11-18T06:26:32;3.60;99.90
55634;DHT22;41504;53.162;6.788;2023-11-18T06:29:02;3.60;99.90
55634;DHT22;41504;53.162;6.788;2023-11-18T06:31:27;3.70;99.90
55634;DHT22;41504;53.162;6.788;2023-11-18T06:33:55;3.60;99.90
55634;DHT22;41504;53.162;6.788;2023-11-18T06:36:21;3.60;99.90
55634;DHT22;41504;53.162;6.788;2023-11-18T06:38:54;3.60;99.90
55634;DHT22;41504;53.162;6.788;2023-11-18T06:41:22;3.60;99.90
55634;DHT22;41504;53.162;6.788;2023-11-18T06:43:49;3.80;99.90
55634;DHT22;41504;53.162;6.788;2023-11-18T06:46:30;3.70;99.90
55634;DHT22;41504;53.162;6.788;2023-11-18T06:49:05;3.60;99.90
55634;DHT22;41504;53.162;6.788;2023-11-18T06:51:35;3.70;99.90
55634;DHT22;41504;53.162;6.788;2023-11-18T06:54:01;3.70;99.90
55634;DHT22;41504;53.162;6.788;2023-11-18T06:56:34;3.70;99.90
55634;DHT22;41504;53.162;6.788;2023-11-18T06:59:02;3.70;99.90
55634;DHT22;41504;53.162;6.788;2023-11-18T07:01:27;3.90;99.90
55634;DHT22;41504;53.162;6.788;2023-11-18T07:03:56;3.70;99.90
55634;DHT22;41504;53.162;6.788;2023-11-18T07:06:22;3.70;99.90
55634;DHT22;41504;53.162;6.788;2023-11-18T07:08:48;3.80;99.90
55634;DHT22;41504;53.162;6.788;2023-11-18T07:11:18;3.80;99.90
55634;DHT22;41504;53.162;6.788;2023-11-18T07:13:44;3.80;99.90
55634;DHT22;41504;53.162;6.788;2023-11-18T07:16:11;3.80;99.90
55634;DHT22;41504;53.162;6.788;2023-11-18T07:18:38;3.80;99.90
55634;DHT22;41504;53.162;6.788;2023-11-18T07:21:04;3.80;99.90
55634;DHT22;41504;53.162;6.788;2023-11-18T07:23:33;3.90;99.90
55634;DHT22;41504;53.162;6.788;2023-11-18T07:26:00;3.90;99.90
55634;DHT22;41504;53.162;6.788;2023-11-18T07:28:26;3.90;99.90
55634;DHT22;41504;53.162;6.788;2023-11-18T07:30:53;4.00;99.90
55634;DHT22;41504;53.162;6.788;2023-11-18T07:33:20;4.00;99.90
55634;DHT22;41504;53.162;6.788;2023-11-18T07:35:47;4.00;99.90
55634;DHT22;41504;53.162;6.788;2023-11-18T07:38:14;4.00;99.90
55634;DHT22;41504;53.162;6.788;2023-11-18T07:40:40;4.10;99.90
55634;DHT22;41504;53.162;6.788;2023-11-18T07:43:15;4.00;99.90
55634;DHT22;41504;53.162;6.788;2023-11-18T07:45:41;4.00;99.90
55634;DHT22;41504;53.162;6.788;2023-11-18T07:48:10;4.00;99.90
55634;DHT22;41504;53.162;6.788;2023-11-18T07:50:40;4.10;99.90
55634;DHT22;41504;53.162;6.788;2023-11-18T07:53:07;4.10;99.90
55634;DHT22;41504;53.162;6.788;2023-11-18T07:55:33;4.10;99.90
55634;DHT22;41504;53.162;6.788;2023-11-18T07:58:09;4.10;99.90
55634;DHT22;41504;53.162;6.788;2023-11-18T08:00:39;4.10;99.90
55634;DHT22;41504;53.162;6.788;2023-11-18T08:03:06;4.30;99.90
55634;DHT22;41504;53.162;6.788;2023-11-18T08:05:40;4.10;99.90
55634;DHT22;41504;53.162;6.788;2023-11-18T08:08:07;4.20;99.90
55634;DHT22;41504;53.162;6.788;2023-11-18T08:10:34;4.20;99.90
55634;DHT22;41504;53.162;6.788;2023-11-18T08:13:04;4.20;99.90
55634;DHT22;41504;53.162;6.788;2023-11-18T08:15:29;4.20;99.90
55634;DHT22;41504;53.162;6.788;2023-11-18T08:17:56;4.20;99.90
55634;DHT22;41504;53.162;6.788;2023-11-18T08:20:22;4.20;99.90
55634;DHT22;41504;53.162;6.788;2023-11-18T08:22:50;4.80;99.90
55634;DHT22;41504;53.162;6.788;2023-11-18T08:25:16;4.40;99.90
55634;DHT22;41504;53.162;6.788;2023-11-18T08:27:46;4.30;99.90
55634;DHT22;41504;53.162;6.788;2023-11-18T08:30:12;4.30;99.90
55634;DHT22;41504;53.162;6.788;2023-11-18T08:32:42;4.30;99.90
55634;DHT22;41504;53.162;6.788;2023-11-18T08:35:14;4.30;99.90
55634;DHT22;41504;53.162;6.788;2023-11-18T08:37:41;4.30;99.90
55634;DHT22;41504;53.162;6.788;2023-11-18T08:40:10;4.30;99.90
55634;DHT22;41504;53.162;6.788;2023-11-18T08:42:48;4.30;99.90
55634;DHT22;41504;53.162;6.788;2023-11-18T08:45:24;4.80;99.90
55634;DHT22;41504;53.162;6.788;2023-11-18T08:47:58;4.30;99.90
55634;DHT22;41504;53.162;6.788;2023-11-18T08:50:25;4.30;99.90
55634;DHT22;41504;53.162;6.788;2023-11-18T08:52:55;4.30;99.90
55634;DHT22;41504;53.162;6.788;2023-11-18T08:55:28;4.40;99.90
55634;DHT22;41504;53.162;6.788;2023-11-18T08:58:09;4.30;99.90
55634;DHT22;41504;53.162;6.788;2023-11-18T09:00:57;4.40;99.90
55634;DHT22;41504;53.162;6.788;2023-11-18T09:03:38;4.30;99.90
55634;DHT22;41504;53.162;6.788;2023-11-18T09:06:09;4.30;99.90
55634;DHT22;41504;53.162;6.788;2023-11-18T09:08:52;5.10;99.90
55634;DHT22;41504;53.162;6.788;2023-11-18T09:11:23;5.20;99.90
55634;DHT22;41504;53.162;6.788;2023-11-18T09:13:52;4.40;99.90
55634;DHT22;41504;53.162;6.788;2023-11-18T09:16:25;4.30;99.90
55634;DHT22;41504;53.162;6.788;2023-11-18T09:18:55;4.30;99.90
55634;DHT22;41504;53.162;6.788;2023-11-18T09:21:24;4.30;99.90
55634;DHT22;41504;53.162;6.788;2023-11-18T09:23:54;4.30;99.90
55634;DHT22;41504;53.162;6.788;2023-11-18T09:26:22;4.30;99.90
55634;DHT22;41504;53.162;6.788;2023-11-18T09:28:47;4.30;99.90
55634;DHT22;41504;53.162;6.788;2023-11-18T09:31:15;4.30;99.90
55634;DHT22;41504;53.162;6.788;2023-11-18T09:33:42;4.30;99.90
55634;DHT22;41504;53.162;6.788;2023-11-18T09:36:18;4.40;99.90
55634;DHT22;41504;53.162;6.788;2023-11-18T09:38:44;4.40;99.90
55634;DHT22;41504;53.162;6.788;2023-11-18T09:41:12;4.40;99.90
55634;DHT22;41504;53.162;6.788;2023-11-18T09:43:45;4.70;99.90
55634;DHT22;41504;53.162;6.788;2023-11-18T09:46:16;4.50;99.90
55634;DHT22;41504;53.162;6.788;2023-11-18T09:48:48;4.50;99.90
55634;DHT22;41504;53.162;6.788;2023-11-18T09:51:23;4.50;99.90
55634;DHT22;41504;53.162;6.788;2023-11-18T09:53:53;4.50;99.90
55634;DHT22;41504;53.162;6.788;2023-11-18T09:56:50;4.50;99.90
55634;DHT22;41504;53.162;6.788;2023-11-18T10:01:57;4.60;99.90
55634;DHT22;41504;53.162;6.788;2023-11-18T10:04:23;4.80;99.90
55634;DHT22;41504;53.162;6.788;2023-11-18T10:06:56;4.60;99.90
55634;DHT22;41504;53.162;6.788;2023-11-18T10:09:23;4.70;99.90
55634;DHT22;41504;53.162;6.788;2023-11-18T10:12:21;4.70;99.90
55634;DHT22;41504;53.162;6.788;2023-11-18T10:14:49;4.70;99.90
55634;DHT22;41504;53.162;6.788;2023-11-18T10:17:20;4.80;99.90
55634;DHT22;41504;53.162;6.788;2023-11-18T10:19:55;4.70;99.90
55634;DHT22;41504;53.162;6.788;2023-11-18T10:22:25;4.80;99.90
55634;DHT22;41504;53.162;6.788;2023-11-18T10:24:56;4.80;99.90
55634;DHT22;41504;53.162;6.788;2023-11-18T10:27:26;4.80;99.90
55634;DHT22;41504;53.162;6.788;2023-11-18T10:29:57;4.80;99.90
55634;DHT22;41504;53.162;6.788;2023-11-18T10:32:23;4.80;99.90
55634;DHT22;41504;53.162;6.788;2023-11-18T10:34:57;4.80;99.90
55634;DHT22;41504;53.162;6.788;2023-11-18T10:37:24;4.90;99.90
55634;DHT22;41504;53.162;6.788;2023-11-18T10:39:50;4.80;99.90
55634;DHT22;41504;53.162;6.788;2023-11-18T10:42:17;5.20;99.90
55634;DHT22;41504;53.162;6.788;2023-11-18T10:44:59;4.80;99.90
55634;DHT22;41504;53.162;6.788;2023-11-18T10:47:32;4.80;99.90
55634;DHT22;41504;53.162;6.788;2023-11-18T10:49:58;4.30;99.90
55634;DHT22;41504;53.162;6.788;2023-11-18T10:52:25;4.80;99.90
55634;DHT22;41504;53.162;6.788;2023-11-18T10:55:00;4.80;99.90
55634;DHT22;41504;53.162;6.788;2023-11-18T10:57:33;5.50;99.90
55634;DHT22;41504;53.162;6.788;2023-11-18T11:00:05;4.80;99.90
55634;DHT22;41504;53.162;6.788;2023-11-18T11:02:40;4.90;99.90
55634;DHT22;41504;53.162;6.788;2023-11-18T11:05:09;5.30;99.90
55634;DHT22;41504;53.162;6.788;2023-11-18T11:07:44;4.90;99.90
55634;DHT22;41504;53.162;6.788;2023-11-18T11:10:10;4.90;99.90
55634;DHT22;41504;53.162;6.788;2023-11-18T11:12:50;5.90;99.90
55634;DHT22;41504;53.162;6.788;2023-11-18T11:15:23;4.90;99.90
55634;DHT22;41504;53.162;6.788;2023-11-18T11:17:54;4.90;99.90
55634;DHT22;41504;53.162;6.788;2023-11-18T11:20:37;5.40;99.90
55634;DHT22;41504;53.162;6.788;2023-11-18T11:31:40;5.10;99.90
55634;DHT22;41504;53.162;6.788;2023-11-18T11:34:16;5.10;99.90
55634;DHT22;41504;53.162;6.788;2023-11-18T11:36:49;5.10;99.90
55634;DHT22;41504;53.162;6.788;2023-11-18T11:39:19;5.10;99.90
55634;DHT22;41504;53.162;6.788;2023-11-18T11:41:52;4.70;99.90
55634;DHT22;41504;53.162;6.788;2023-11-18T11:44:22;5.10;99.90
55634;DHT22;41504;53.162;6.788;2023-11-18T11:46:59;5.20;99.90
55634;DHT22;41504;53.162;6.788;2023-11-18T11:49:28;5.20;99.90
55634;DHT22;41504;53.162;6.788;2023-11-18T11:52:26;5.20;99.90
55634;DHT22;41504;53.162;6.788;2023-11-18T11:55:10;5.20;99.90
55634;DHT22;41504;53.162;6.788;2023-11-18T11:57:39;5.20;99.90
55634;DHT22;41504;53.162;6.788;2023-11-18T12:00:09;5.30;99.90
55634;DHT22;41504;53.162;6.788;2023-11-18T12:02:51;4.70;99.90
55634;DHT22;41504;53.162;6.788;2023-11-18T12:05:23;5.20;99.90
55634;DHT22;41504;53.162;6.788;2023-11-18T12:07:52;5.50;99.90
55634;DHT22;41504;53.162;6.788;2023-11-18T12:10:21;5.60;99.90
55634;DHT22;41504;53.162;6.788;2023-11-18T12:12:48;5.30;99.90
55634;DHT22;41504;53.162;6.788;2023-11-18T12:15:14;5.30;99.90
55634;DHT22;41504;53.162;6.788;2023-11-18T12:20:38;5.30;99.90
55634;DHT22;41504;53.162;6.788;2023-11-18T12:23:08;4.60;99.90
55634;DHT22;41504;53.162;6.788;2023-11-18T12:25:41;5.30;99.90
55634;DHT22;41504;53.162;6.788;2023-11-18T12:28:08;6.20;99.90
55634;DHT22;41504;53.162;6.788;2023-11-18T12:33:05;5.40;99.90
55634;DHT22;41504;53.162;6.788;2023-11-18T12:46:49;5.40;99.90
55634;DHT22;41504;53.162;6.788;2023-11-18T12:49:23;5.40;99.90
55634;DHT22;41504;53.162;6.788;2023-11-18T12:51:54;6.20;99.90
55634;DHT22;41504;53.162;6.788;2023-11-18T12:54:22;5.50;99.90
55634;DHT22;41504;53.162;6.788;2023-11-18T12:56:51;5.50;99.90
55634;DHT22;41504;53.162;6.788;2023-11-18T12:59:19;5.50;99.90
55634;DHT22;41504;53.162;6.788;2023-11-18T13:01:53;5.80;99.90
55634;DHT22;41504;53.162;6.788;2023-11-18T13:04:27;5.80;99.90
55634;DHT22;41504;53.162;6.788;2023-11-18T13:06:53;5.50;99.90
55634;DHT22;41504;53.162;6.788;2023-11-18T13:09:22;5.50;99.90
55634;DHT22;41504;53.162;6.788;2023-11-18T13:11:56;5.50;99.90
55634;DHT22;41504;53.162;6.788;2023-11-18T13:14:26;6.10;99.90
55634;DHT22;41504;53.162;6.788;2023-11-18T13:16:53;5.50;99.90
55634;DHT22;41504;53.162;6.788;2023-11-18T13:19:26;5.50;99.90
55634;DHT22;41504;53.162;6.788;2023-11-18T13:22:00;5.50;99.90
55634;DHT22;41504;53.162;6.788;2023-11-18T13:24:27;5.50;99.90
55634;DHT22;41504;53.162;6.788;2023-11-18T13:26:56;5.50;99.90
55634;DHT22;41504;53.162;6.788;2023-11-18T13:29:23;5.50;99.90
55634;DHT22;41504;53.162;6.788;2023-11-18T13:31:53;6.10;99.90
55634;DHT22;41504;53.162;6.788;2023-11-18T13:34:19;6.00;99.90
55634;DHT22;41504;53.162;6.788;2023-11-18T13:36:47;5.50;99.90
55634;DHT22;41504;53.162;6.788;2023-11-18T13:41:43;5.50;99.90
55634;DHT22;41504;53.162;6.788;2023-11-18T13:44:10;5.70;99.90
55634;DHT22;41504;53.162;6.788;2023-11-18T13:46:48;5.60;99.90
55634;DHT22;41504;53.162;6.788;2023-11-18T13:49:14;5.60;99.90
55634;DHT22;41504;53.162;6.788;2023-11-18T13:51:40;5.60;99.90
55634;DHT22;41504;53.162;6.788;2023-11-18T13:54:06;5.60;99.90
55634;DHT22;41504;53.162;6.788;2023-11-18T13:56:32;5.60;99.90
55634;DHT22;41504;53.162;6.788;2023-11-18T13:58:58;5.60;99.90
55634;DHT22;41504;53.162;6.788;2023-11-18T14:01:24;5.60;99.90
55634;DHT22;41504;53.162;6.788;2023-11-18T14:03:53;5.80;99.90
55634;DHT22;41504;53.162;6.788;2023-11-18T14:06:22;5.80;99.90
55634;DHT22;41504;53.162;6.788;2023-11-18T14:08:48;5.30;99.90
55634;DHT22;41504;53.162;6.788;2023-11-18T14:11:14;5.60;99.90
55634;DHT22;41504;53.162;6.788;2023-11-18T14:13:39;5.70;99.90
55634;DHT22;41504;53.162;6.788;2023-11-18T14:16:05;5.60;99.90
55634;DHT22;41504;53.162;6.788;2023-11-18T14:18:35;5.60;99.90
55634;DHT22;41504;53.162;6.788;2023-11-18T14:21:02;5.70;99.90
55634;DHT22;41504;53.162;6.788;2023-11-18T14:23:28;5.70;99.90
55634;DHT22;41504;53.162;6.788;2023-11-18T14:25:53;5.70;99.90
55634;DHT22;41504;53.162;6.788;2023-11-18T14:28:19;5.60;99.90
55634;DHT22;41504;53.162;6.788;2023-11-18T14:30:50;5.30;99.90
55634;DHT22;41504;53.162;6.788;2023-11-18T14:33:17;5.60;99.90
55634;DHT22;41504;53.162;6.788;2023-11-18T14:35:46;5.60;99.90
55634;DHT22;41504;53.162;6.788;2023-11-18T14:38:12;5.60;99.90
55634;DHT22;41504;53.162;6.788;2023-11-18T14:40:38;6.20;99.90
55634;DHT22;41504;53.162;6.788;2023-11-18T14:43:06;5.60;99.90
55634;DHT22;41504;53.162;6.788;2023-11-18T14:45:32;5.60;99.90
55634;DHT22;41504;53.162;6.788;2023-11-18T14:47:58;5.70;99.90
55634;DHT22;41504;53.162;6.788;2023-11-18T14:50:24;5.70;99.90
55634;DHT22;41504;53.162;6.788;2023-11-18T14:52:54;5.70;99.90
55634;DHT22;41504;53.162;6.788;2023-11-18T14:55:26;5.70;99.90
55634;DHT22;41504;53.162;6.788;2023-11-18T14:57:53;5.70;99.90
55634;DHT22;41504;53.162;6.788;2023-11-18T15:00:18;5.70;99.90
55634;DHT22;41504;53.162;6.788;2023-11-18T15:02:49;5.70;99.90
55634;DHT22;41504;53.162;6.788;2023-11-18T15:05:16;5.70;99.90
55634;DHT22;41504;53.162;6.788;2023-11-18T15:07:49;5.70;99.90
55634;DHT22;41504;53.162;6.788;2023-11-18T15:10:27;5.80;99.90
55634;DHT22;41504;53.162;6.788;2023-11-18T15:12:55;5.70;99.90
55634;DHT22;41504;53.162;6.788;2023-11-18T15:15:31;5.70;99.90
55634;DHT22;41504;53.162;6.788;2023-11-18T15:18:04;5.70;99.90
55634;DHT22;41504;53.162;6.788;2023-11-18T15:20:31;5.70;99.90
55634;DHT22;41504;53.162;6.788;2023-11-18T15:22:57;5.80;99.90
55634;DHT22;41504;53.162;6.788;2023-11-18T15:25:22;5.70;99.90
55634;DHT22;41504;53.162;6.788;2023-11-18T15:27:48;5.80;99.90
55634;DHT22;41504;53.162;6.788;2023-11-18T15:30:15;6.10;99.90
55634;DHT22;41504;53.162;6.788;2023-11-18T15:32:44;5.80;99.90
55634;DHT22;41504;53.162;6.788;2023-11-18T15:35:10;5.80;99.90
55634;DHT22;41504;53.162;6.788;2023-11-18T15:37:39;5.90;99.90
55634;DHT22;41504;53.162;6.788;2023-11-18T15:40:07;5.90;99.90
55634;DHT22;41504;53.162;6.788;2023-11-18T15:42:41;5.90;99.90
55634;DHT22;41504;53.162;6.788;2023-11-18T15:45:15;5.90;99.90
55634;DHT22;41504;53.162;6.788;2023-11-18T15:47:42;5.90;99.90
55634;DHT22;41504;53.162;6.788;2023-11-18T15:50:13;5.90;99.90
55634;DHT22;41504;53.162;6.788;2023-11-18T15:52:47;5.90;99.90
55634;DHT22;41504;53.162;6.788;2023-11-18T15:55:18;5.90;99.90
55634;DHT22;41504;53.162;6.788;2023-11-18T15:57:45;6.00;99.90
55634;DHT22;41504;53.162;6.788;2023-11-18T16:00:29;6.00;99.90
55634;DHT22;41504;53.162;6.788;2023-11-18T16:02:56;6.00;99.90
55634;DHT22;41504;53.162;6.788;2023-11-18T16:05:24;6.10;99.90
55634;DHT22;41504;53.162;6.788;2023-11-18T16:07:52;6.00;99.90
55634;DHT22;41504;53.162;6.788;2023-11-18T16:10:20;6.00;99.90
55634;DHT22;41504;53.162;6.788;2023-11-18T16:12:57;6.00;99.90
55634;DHT22;41504;53.162;6.788;2023-11-18T16:15:29;6.00;99.90
55634;DHT22;41504;53.162;6.788;2023-11-18T16:17:59;6.00;99.90
55634;DHT22;41504;53.162;6.788;2023-11-18T16:20:27;6.10;99.90
55634;DHT22;41504;53.162;6.788;2023-11-18T16:22:54;6.60;99.90
55634;DHT22;41504;53.162;6.788;2023-11-18T16:25:25;6.10;99.90
55634;DHT22;41504;53.162;6.788;2023-11-18T16:27:54;6.50;99.90